Morning Clara — 9V7564 — position and weather

sailwx.info

Track history (hours):
 
Tides and Currents Weather Stations Pressure Air Temp Water Temp Dewpoint Dewpoint Depression Visibility Wind Speed Wind Dir Waves Ship Positions

Morning Clara

Last reported at 2016-Jan-12 09:30 UTC. Time now 2016-Feb-10 10:48 UTC.
Position N 38°56' E 118°01'.
Warning: this ship's position is 29 days out of date.

Length 200 m; draft 8.5 m.

Type: Cargo ship. MMSI: 564254000.

Date/timePositionNaut miles runAvg speedWind from/ knotsBaromVisibWave heightAir tempDewpointWater temp
2016-Jan-12 09:30N 38°56' E 118°01'1010.4
2016-Jan-12 08:33N 38°58' E 117°49'4 3.4
2016-Jan-12 07:28N 39°01' E 117°46'0 0.0
2016-Jan-12 06:28N 39°01' E 117°46'0 0.0
2016-Jan-12 05:28N 39°01' E 117°46'0 0.0
2016-Jan-12 04:28N 39°01' E 117°46'0 0.0
2016-Jan-12 02:22N 39°01' E 117°46'0 0.0
2016-Jan-12 01:28N 39°01' E 117°46'0 0.0
2016-Jan-12 00:28N 39°01' E 117°46'0 0.0
2016-Jan-11 23:28N 39°01' E 117°46'0 0.0
2016-Jan-11 22:16N 39°01' E 117°46'0 0.0
2016-Jan-11 21:28N 39°01' E 117°46'0 0.0
2016-Jan-11 20:22N 39°01' E 117°46'0 0.0
2016-Jan-11 19:22N 39°01' E 117°46'0 0.1
2016-Jan-11 18:33N 39°01' E 117°46'8 7.6
2016-Jan-11 17:33N 38°57' E 117°55'17210.5
2016-Jan-11 01:12N 38°24' E 121°31'42913.1
2016-Jan-09 16:30N 31°15' E 121°56'14 1.5
2016-Jan-09 07:21N 31°19' E 121°41'0 0.0
2016-Jan-09 06:33N 31°19' E 121°41'0 0.0
2016-Jan-09 03:32N 31°19' E 121°41'  
Track history (hours):
 
Tides and Currents Weather Stations Pressure Air Temp Water Temp Dewpoint Dewpoint Depression Visibility Wind Speed Wind Dir Waves Ship Positions

Morning Clara

Last reported at 2016-Jan-12 09:30 UTC. Time now 2016-Feb-10 10:48 UTC.
Position N 38°56' E 118°01'.
Warning: this ship's position is 29 days out of date.

Length 200 m; draft 8.5 m.

Type: Cargo ship. MMSI: 564254000.

Date/timePositionNaut miles runAvg speedWind from/ knotsBaromVisibWave heightAir tempDewpointWater temp
2016-Jan-12 09:30N 38°56' E 118°01'1010.4
2016-Jan-12 08:33N 38°58' E 117°49'4 3.4
2016-Jan-12 07:28N 39°01' E 117°46'0 0.0
2016-Jan-12 06:28N 39°01' E 117°46'0 0.0
2016-Jan-12 05:28N 39°01' E 117°46'0 0.0
2016-Jan-12 04:28N 39°01' E 117°46'0 0.0
2016-Jan-12 02:22N 39°01' E 117°46'0 0.0
2016-Jan-12 01:28N 39°01' E 117°46'0 0.0
2016-Jan-12 00:28N 39°01' E 117°46'0 0.0
2016-Jan-11 23:28N 39°01' E 117°46'0 0.0
2016-Jan-11 22:16N 39°01' E 117°46'0 0.0
2016-Jan-11 21:28N 39°01' E 117°46'0 0.0
2016-Jan-11 20:22N 39°01' E 117°46'0 0.0
2016-Jan-11 19:22N 39°01' E 117°46'0 0.1
2016-Jan-11 18:33N 39°01' E 117°46'8 7.6
2016-Jan-11 17:33N 38°57' E 117°55'17210.5
2016-Jan-11 01:12N 38°24' E 121°31'42913.1
2016-Jan-09 16:30N 31°15' E 121°56'14 1.5
2016-Jan-09 07:21N 31°19' E 121°41'0 0.0
2016-Jan-09 06:33N 31°19' E 121°41'0 0.0
2016-Jan-09 03:32N 31°19' E 121°41'  

Dump ship's entire track history